Time;durP1;ratioP1;P1;durP2;ratioP2;P2;SDS_P1;SDS_P2;PMS_P1;PMS_P2;Temp;Humidity;BMP_temperature;BMP_pressure;BME280_temperature;BME280_humidity;BME280_pressure;Samples;Min_cycle;Max_cycle;Signal;HPM_P1;HPM_P2
2021/09/17 00:01:54;;;;;;;;;;;;;;;;;;5052508;28;20010;-70
2021/09/17 00:04:21;;;;;;;;;;;;;;;;;;5052424;28;20009;-69
2021/09/17 00:06:50;;;;;;;;;;;;;;;;;;5052280;28;20009;-69
2021/09/17 00:09:17;;;;;;;;;;;;;;;;;;5052313;28;20048;-69
2021/09/17 00:11:44;;;;;;;;;;;;;;;;;;5052269;28;20009;-70
2021/09/17 00:14:11;;;;;;;;;;;;;;;;;;5052301;28;20016;-70
2021/09/17 00:16:38;;;;;;;;;;;;;;;;;;5052212;28;20033;-69
2021/09/17 00:19:05;;;;;;;;;;;;;;;;;;5051884;28;20029;-69
2021/09/17 00:21:32;;;;;;;;;;;;;;;;;;5052047;28;20013;-69
2021/09/17 00:23:58;;;;;;;;;;;;;;;;;;5051782;28;20009;-69
2021/09/17 00:26:25;;;;;;;;;;;;;;;;;;5052012;28;20032;-69
2021/09/17 00:28:52;;;;;;;;;;;;;;;;;;5051745;28;20029;-70
2021/09/17 00:31:19;;;;;;;;;;;;;;;;;;5052048;28;20013;-70
2021/09/17 00:33:46;;;;;;;;;;;;;;;;;;5051990;28;20009;-69
2021/09/17 00:36:13;;;;;;;;;;;;;;;;;;5051681;28;20033;-69
2021/09/17 00:38:40;;;;;;;;;;;;;;;;;;5051709;28;20032;-69
2021/09/17 00:41:10;;;;;;;;;;;;;;;;;;5051328;28;20018;-70
2021/09/17 00:43:37;;;;;;;;;;;;;;;;;;5052112;28;20013;-70
2021/09/17 00:46:04;;;;;;;;;;;;;;;;;;5051460;28;20009;-69
2021/09/17 00:48:31;;;;;;;;;;;;;;;;;;5051727;28;20033;-69
2021/09/17 00:50:58;;;;;;;;;;;;;;;;;;5051392;28;20059;-69
2021/09/17 00:53:25;;;;;;;;;;;;;;;;;;5051641;28;20009;-70
2021/09/17 00:55:52;;;;;;;;;;;;;;;;;;5051560;28;20026;-69
2021/09/17 00:58:19;;;;;;;;;;;;;;;;;;5051818;28;20052;-69
2021/09/17 01:00:46;;;;;;;;;;;;;;;;;;5054487;28;20009;-69
2021/09/17 01:03:12;;;;;;;;;;;;;;;;;;5055584;28;20010;-69
2021/09/17 01:05:39;;;;;;;;;;;;;;;;;;5055515;28;20044;-69
2021/09/17 01:08:06;;;;;;;;;;;;;;;;;;5055609;28;20026;-69
2021/09/17 01:10:33;;;;;;;;;;;;;;;;;;5055956;28;20010;-70
2021/09/17 01:13:00;;;;;;;;;;;;;;;;;;5055485;28;20377;-69
2021/09/17 01:15:27;;;;;;;;;;;;;;;;;;5055270;28;20026;-69
2021/09/17 01:17:54;;;;;;;;;;;;;;;;;;5055272;28;20029;-69
2021/09/17 01:20:21;;;;;;;;;;;;;;;;;;5055315;28;20499;-69
2021/09/17 01:22:48;;;;;;;;;;;;;;;;;;5055802;28;20013;-69
2021/09/17 01:25:15;;;;;;;;;;;;;;;;;;5055351;28;20009;-69
2021/09/17 01:27:42;;;;;;;;;;;;;;;;;;5054906;28;20499;-70
2021/09/17 01:30:08;;;;;;;;;;;;;;;;;;5055419;28;20010;-69
2021/09/17 01:32:35;;;;;;;;;;;;;;;;;;5055422;28;20009;-69
2021/09/17 01:35:04;;;;;;;;;;;;;;;;;;5055074;28;20014;-69
2021/09/17 01:37:31;;;;;;;;;;;;;;;;;;5054866;28;20477;-69
2021/09/17 01:39:57;;;;;;;;;;;;;;;;;;5055130;28;20013;-69
2021/09/17 01:42:24;;;;;;;;;;;;;;;;;;5055565;28;20010;-69
2021/09/17 01:44:51;;;;;;;;;;;;;;;;;;5054731;28;20495;-68
2021/09/17 01:47:18;;;;;;;;;;;;;;;;;;5055005;28;20010;-69
2021/09/17 01:49:45;;;;;;;;;;;;;;;;;;5054949;28;20030;-69
2021/09/17 01:52:12;;;;;;;;;;;;;;;;;;5054730;28;20020;-70
2021/09/17 01:54:39;;;;;;;;;;;;;;;;;;5054795;28;20010;-69
2021/09/17 01:57:06;;;;;;;;;;;;;;;;;;5054725;28;20025;-69
2021/09/17 01:59:33;;;;;;;;;;;;;;;;;;5054610;28;20032;-70
2021/09/17 02:02:00;;;;;;;;;;;;;;;;;;5054912;28;20010;-69
2021/09/17 02:04:27;;;;;;;;;;;;;;;;;;5054579;28;20009;-70
2021/09/17 02:06:54;;;;;;;;;;;;;;;;;;5054220;28;20010;-69
2021/09/17 02:09:20;;;;;;;;;;;;;;;;;;5054646;28;20026;-71
2021/09/17 02:11:47;;;;;;;;;;;;;;;;;;5054360;28;20016;-69
2021/09/17 02:14:14;;;;;;;;;;;;;;;;;;5054954;28;20010;-69
2021/09/17 02:16:41;;;;;;;;;;;;;;;;;;5055115;28;20021;-70
2021/09/17 02:19:08;;;;;;;;;;;;;;;;;;5067018;22;20022;-71
2021/09/17 02:21:38;;;;;;;;;;;;;;;;;;5030927;28;20006;-71
2021/09/17 02:24:05;;;;;;;;;;;;;;;;;;5045531;28;20357;-75
2021/09/17 02:26:31;;;;;;;;;;;;;;;;;;5054058;28;20009;-74
2021/09/17 02:28:59;;;;;;;;;;;;;;;;;;5053905;28;20033;-76
2021/09/17 02:31:26;;;;;;;;;;;;;;;;;;5053762;28;20010;-68
2021/09/17 02:33:53;;;;;;;;;;;;;;;;;;5054136;28;20016;-73
2021/09/17 02:36:20;;;;;;;;;;;;;;;;;;5053838;28;20026;-68
2021/09/17 02:38:47;;;;;;;;;;;;;;;;;;5053774;28;20512;-66
2021/09/17 02:41:14;;;;;;;;;;;;;;;;;;5053712;28;20100;-74
2021/09/17 02:43:41;;;;;;;;;;;;;;;;;;5053791;28;20016;-72
2021/09/17 02:46:08;;;;;;;;;;;;;;;;;;5053912;28;20104;-70
2021/09/17 02:48:35;;;;;;;;;;;;;;;;;;5053776;28;20026;-76
2021/09/17 02:51:02;;;;;;;;;;;;;;;;;;5054087;28;20009;-74
2021/09/17 02:53:29;;;;;;;;;;;;;;;;;;5053629;28;20010;-67
2021/09/17 02:55:57;;;;;;;;;;;;;;;;;;5053125;28;20028;-73
2021/09/17 02:58:24;;;;;;;;;;;;;;;;;;5053194;28;20524;-67
2021/09/17 03:00:51;;;;;;;;;;;;;;;;;;5053306;28;20009;-77
2021/09/17 03:03:18;;;;;;;;;;;;;;;;;;5053659;28;20014;-73
2021/09/17 03:05:45;;;;;;;;;;;;;;;;;;5052982;28;20491;-74
2021/09/17 03:08:12;;;;;;;;;;;;;;;;;;5053133;28;20009;-69
2021/09/17 03:10:38;;;;;;;;;;;;;;;;;;5053248;28;20009;-73
2021/09/17 03:13:05;;;;;;;;;;;;;;;;;;5053294;28;20032;-69
2021/09/17 03:15:32;;;;;;;;;;;;;;;;;;5052861;28;20016;-71
2021/09/17 03:17:59;;;;;;;;;;;;;;;;;;5053281;28;20025;-77
2021/09/17 03:20:26;;;;;;;;;;;;;;;;;;5052625;28;20030;-68
2021/09/17 03:22:53;;;;;;;;;;;;;;;;;;5052928;28;20016;-71
2021/09/17 03:25:20;;;;;;;;;;;;;;;;;;5052972;28;20010;-66
2021/09/17 03:27:47;;;;;;;;;;;;;;;;;;5052614;28;20543;-67
2021/09/17 03:30:14;;;;;;;;;;;;;;;;;;5053091;28;20030;-74
2021/09/17 03:32:41;;;;;;;;;;;;;;;;;;5053146;28;20010;-71
2021/09/17 03:35:08;;;;;;;;;;;;;;;;;;5052737;28;20472;-70
2021/09/17 03:37:35;;;;;;;;;;;;;;;;;;5052627;28;20030;-68
2021/09/17 03:40:02;;;;;;;;;;;;;;;;;;5052780;28;20026;-70
2021/09/17 03:42:29;;;;;;;;;;;;;;;;;;5052453;28;20480;-66
2021/09/17 03:44:56;;;;;;;;;;;;;;;;;;5052556;28;20009;-72
2021/09/17 03:47:23;;;;;;;;;;;;;;;;;;5052573;28;20534;-71
2021/09/17 03:49:50;;;;;;;;;;;;;;;;;;5052372;28;20032;-72
2021/09/17 03:52:17;;;;;;;;;;;;;;;;;;5053066;28;20010;-68
2021/09/17 03:54:43;;;;;;;;;;;;;;;;;;5052077;28;20060;-68
2021/09/17 03:57:10;;;;;;;;;;;;;;;;;;5052294;28;20036;-69
2021/09/17 03:59:37;;;;;;;;;;;;;;;;;;5052400;28;20443;-71
2021/09/17 04:02:04;;;;;;;;;;;;;;;;;;5052608;28;20010;-73
2021/09/17 04:04:31;;;;;;;;;;;;;;;;;;5052341;28;20009;-71
2021/09/17 04:06:59;;;;;;;;;;;;;;;;;;5051910;28;20009;-67
2021/09/17 04:09:26;;;;;;;;;;;;;;;;;;5052507;28;20025;-68
2021/09/17 04:11:53;;;;;;;;;;;;;;;;;;5052128;28;20456;-66
2021/09/17 04:14:20;;;;;;;;;;;;;;;;;;5052302;28;20009;-66
2021/09/17 04:16:46;;;;;;;;;;;;;;;;;;5051926;28;20032;-66
2021/09/17 04:19:13;;;;;;;;;;;;;;;;;;5051868;28;20029;-65
2021/09/17 04:21:40;;;;;;;;;;;;;;;;;;5052163;28;20009;-66
2021/09/17 04:24:07;;;;;;;;;;;;;;;;;;5051743;28;20040;-68
2021/09/17 04:26:34;;;;;;;;;;;;;;;;;;5052047;28;20018;-65
2021/09/17 04:29:01;;;;;;;;;;;;;;;;;;5052191;28;20025;-67
2021/09/17 04:31:28;;;;;;;;;;;;;;;;;;5052065;28;20010;-68
2021/09/17 04:33:55;;;;;;;;;;;;;;;;;;5051757;28;20468;-66
2021/09/17 04:36:22;;;;;;;;;;;;;;;;;;5051548;28;20032;-65
2021/09/17 04:38:49;;;;;;;;;;;;;;;;;;5051830;28;20036;-68
2021/09/17 04:41:16;;;;;;;;;;;;;;;;;;5051927;28;20484;-68
2021/09/17 04:43:42;;;;;;;;;;;;;;;;;;5052156;28;20010;-65
2021/09/17 04:46:09;;;;;;;;;;;;;;;;;;5051540;28;20017;-65
2021/09/17 04:48:36;;;;;;;;;;;;;;;;;;5051732;28;20500;-65
2021/09/17 04:51:03;;;;;;;;;;;;;;;;;;5051580;28;20009;-65
2021/09/17 04:53:30;;;;;;;;;;;;;;;;;;5051969;28;20017;-65
2021/09/17 04:55:57;;;;;;;;;;;;;;;;;;5051423;28;20488;-66
2021/09/17 04:58:25;;;;;;;;;;;;;;;;;;5051805;28;20030;-66
2021/09/17 05:00:52;;;;;;;;;;;;;;;;;;5051830;28;20009;-66
2021/09/17 05:03:19;;;;;;;;;;;;;;;;;;5052540;28;20013;-66
2021/09/17 05:05:46;;;;;;;;;;;;;;;;;;5051020;28;20017;-65
2021/09/17 05:08:13;;;;;;;;;;;;;;;;;;5051877;28;20010;-66
2021/09/17 05:10:40;;;;;;;;;;;;;;;;;;5051703;28;20009;-66
2021/09/17 05:13:07;;;;;;;;;;;;;;;;;;5051577;28;20020;-66
2021/09/17 05:15:34;;;;;;;;;;;;;;;;;;5051278;28;20010;-65
2021/09/17 05:18:01;;;;;;;;;;;;;;;;;;5051514;28;20029;-66
2021/09/17 05:20:28;;;;;;;;;;;;;;;;;;5051379;28;20053;-66
2021/09/17 05:22:55;;;;;;;;;;;;;;;;;;5051923;28;20009;-66
2021/09/17 05:25:22;;;;;;;;;;;;;;;;;;5051310;28;20016;-67
2021/09/17 05:27:48;;;;;;;;;;;;;;;;;;5051265;28;20009;-67
2021/09/17 05:30:15;;;;;;;;;;;;;;;;;;5051502;28;20025;-66
2021/09/17 05:32:42;;;;;;;;;;;;;;;;;;5051437;28;20447;-66
2021/09/17 05:35:09;;;;;;;;;;;;;;;;;;5051459;28;20021;-68
2021/09/17 05:37:36;;;;;;;;;;;;;;;;;;5051252;28;20026;-69
2021/09/17 05:40:03;;;;;;;;;;;;;;;;;;5051062;28;20535;-66
2021/09/17 05:42:30;;;;;;;;;;;;;;;;;;5051520;28;20476;-67
2021/09/17 05:44:57;;;;;;;;;;;;;;;;;;5051150;28;20017;-67
2021/09/17 05:47:24;;;;;;;;;;;;;;;;;;5052870;28;20016;-66
2021/09/17 05:49:51;;;;;;;;;;;;;;;;;;5054895;28;20388;-67
2021/09/17 05:52:18;;;;;;;;;;;;;;;;;;5055253;28;20009;-67
2021/09/17 05:54:46;;;;;;;;;;;;;;;;;;5054520;28;20056;-71
2021/09/17 05:57:13;;;;;;;;;;;;;;;;;;5054289;28;20056;-69
2021/09/17 05:59:40;;;;;;;;;;;;;;;;;;5054775;28;20026;-65
2021/09/17 06:02:08;;;;;;;;;;;;;;;;;;5054945;28;20020;-67
2021/09/17 06:04:35;;;;;;;;;;;;;;;;;;5054851;28;20010;-71
2021/09/17 06:07:02;;;;;;;;;;;;;;;;;;5054603;28;20009;-66
2021/09/17 06:09:29;;;;;;;;;;;;;;;;;;5054258;28;20080;-67
2021/09/17 06:11:56;;;;;;;;;;;;;;;;;;5054425;28;20030;-66
2021/09/17 06:14:23;;;;;;;;;;;;;;;;;;5054343;28;20010;-68
2021/09/17 06:16:49;;;;;;;;;;;;;;;;;;5054139;28;20026;-68
2021/09/17 06:19:16;;;;;;;;;;;;;;;;;;5054206;28;20036;-67
2021/09/17 06:21:43;;;;;;;;;;;;;;;;;;5054523;28;20016;-71
2021/09/17 06:24:10;;;;;;;;;;;;;;;;;;5053983;28;20499;-67
2021/09/17 06:26:37;;;;;;;;;;;;;;;;;;5054100;28;20009;-68
2021/09/17 06:29:04;;;;;;;;;;;;;;;;;;5053952;28;20059;-67
2021/09/17 06:31:31;;;;;;;;;;;;;;;;;;5053947;28;20464;-71
2021/09/17 06:33:58;;;;;;;;;;;;;;;;;;5054093;28;20010;-72
2021/09/17 06:36:25;;;;;;;;;;;;;;;;;;5054275;28;20016;-70
2021/09/17 06:38:52;;;;;;;;;;;;;;;;;;5053879;28;20414;-69
2021/09/17 06:41:19;;;;;;;;;;;;;;;;;;5054206;28;20016;-64
2021/09/17 06:43:46;;;;;;;;;;;;;;;;;;5053755;28;20017;-71
2021/09/17 06:46:12;;;;;;;;;;;;;;;;;;5053756;28;20009;-65
2021/09/17 06:48:39;;;;;;;;;;;;;;;;;;5053612;28;20033;-69
2021/09/17 06:51:06;;;;;;;;;;;;;;;;;;5053928;28;20010;-70
2021/09/17 06:53:33;;;;;;;;;;;;;;;;;;5053792;28;20017;-66
2021/09/17 06:56:00;;;;;;;;;;;;;;;;;;5052968;28;20383;-64
2021/09/17 06:58:31;;;;;;;;;;;;;;;;;;5053252;28;20029;-64
2021/09/17 07:00:58;;;;;;;;;;;;;;;;;;5053805;28;20010;-65
2021/09/17 07:03:25;;;;;;;;;;;;;;;;;;5053460;28;20469;-64
2021/09/17 07:05:52;;;;;;;;;;;;;;;;;;5053328;28;20009;-65
2021/09/17 07:08:19;;;;;;;;;;;;;;;;;;5053288;28;20100;-64
2021/09/17 07:10:46;;;;;;;;;;;;;;;;;;5053345;28;20064;-64
2021/09/17 07:13:13;;;;;;;;;;;;;;;;;;5053464;28;20009;-64
2021/09/17 07:15:40;;;;;;;;;;;;;;;;;;5053179;28;20020;-64
2021/09/17 07:18:07;;;;;;;;;;;;;;;;;;5053090;28;20025;-64
2021/09/17 07:20:34;;;;;;;;;;;;;;;;;;5053036;28;20014;-65
2021/09/17 07:23:03;;;;;;;;;;;;;;;;;;5053095;28;20017;-63
2021/09/17 07:25:30;;;;;;;;;;;;;;;;;;5052965;28;20366;-65
2021/09/17 07:27:57;;;;;;;;;;;;;;;;;;5053125;28;20010;-65
2021/09/17 07:30:24;;;;;;;;;;;;;;;;;;5053060;28;20025;-64
2021/09/17 07:32:50;;;;;;;;;;;;;;;;;;5052852;28;20010;-65
2021/09/17 07:35:17;;;;;;;;;;;;;;;;;;5052791;28;20010;-63
2021/09/17 07:37:44;;;;;;;;;;;;;;;;;;5052538;28;20036;-64
2021/09/17 07:40:13;;;;;;;;;;;;;;;;;;5052977;28;20033;-64
2021/09/17 07:42:40;;;;;;;;;;;;;;;;;;5052952;28;20016;-64
2021/09/17 07:45:07;;;;;;;;;;;;;;;;;;5052690;28;20009;-65
2021/09/17 07:47:34;;;;;;;;;;;;;;;;;;5052387;28;20013;-64
2021/09/17 07:50:01;;;;;;;;;;;;;;;;;;5052571;28;20501;-65
2021/09/17 07:52:28;;;;;;;;;;;;;;;;;;5052477;28;20091;-64
2021/09/17 07:54:55;;;;;;;;;;;;;;;;;;5052767;28;20009;-62
2021/09/17 07:57:22;;;;;;;;;;;;;;;;;;5052310;28;20507;-62
2021/09/17 07:59:49;;;;;;;;;;;;;;;;;;5052807;28;20032;-62
2021/09/17 08:02:16;;;;;;;;;;;;;;;;;;5052658;28;20009;-63
2021/09/17 08:04:43;;;;;;;;;;;;;;;;;;5052413;28;20016;-62
2021/09/17 08:07:10;;;;;;;;;;;;;;;;;;5052164;28;20020;-63
2021/09/17 08:09:37;;;;;;;;;;;;;;;;;;5051632;28;20026;-62
2021/09/17 08:12:04;;;;;;;;;;;;;;;;;;5052623;28;20013;-62
2021/09/17 08:14:30;;;;;;;;;;;;;;;;;;5052133;28;20032;-62
2021/09/17 08:16:57;;;;;;;;;;;;;;;;;;5052177;28;20009;-63
2021/09/17 08:19:25;;;;;;;;;;;;;;;;;;5051701;28;20029;-62
2021/09/17 08:21:52;;;;;;;;;;;;;;;;;;5053058;28;20009;-62
2021/09/17 08:24:19;;;;;;;;;;;;;;;;;;5052336;28;20009;-62
2021/09/17 08:26:46;;;;;;;;;;;;;;;;;;5052178;28;20491;-62
2021/09/17 08:29:13;;;;;;;;;;;;;;;;;;5052226;28;20025;-61
2021/09/17 08:31:39;;;;;;;;;;;;;;;;;;5052292;28;20020;-62
2021/09/17 08:34:06;;;;;;;;;;;;;;;;;;5051775;28;20377;-62
2021/09/17 08:36:33;;;;;;;;;;;;;;;;;;5051957;28;20015;-62
2021/09/17 08:39:00;;;;;;;;;;;;;;;;;;5052417;28;20029;-63
2021/09/17 08:41:27;;;;;;;;;;;;;;;;;;5052326;28;20018;-61
2021/09/17 08:43:54;;;;;;;;;;;;;;;;;;5051847;28;20392;-61
2021/09/17 08:46:21;;;;;;;;;;;;;;;;;;5051979;28;20009;-61
2021/09/17 08:48:49;;;;;;;;;;;;;;;;;;5051960;28;20025;-62
2021/09/17 08:51:16;;;;;;;;;;;;;;;;;;5052249;28;20052;-62
2021/09/17 08:53:43;;;;;;;;;;;;;;;;;;5051942;28;20010;-62
2021/09/17 08:56:10;;;;;;;;;;;;;;;;;;5051969;28;20017;-62
2021/09/17 08:58:37;;;;;;;;;;;;;;;;;;5051815;28;20036;-62
2021/09/17 09:01:04;;;;;;;;;;;;;;;;;;5052064;28;20369;-62
2021/09/17 09:03:31;;;;;;;;;;;;;;;;;;5051673;28;20010;-62
2021/09/17 09:05:58;;;;;;;;;;;;;;;;;;5051745;28;20111;-62
2021/09/17 09:08:24;;;;;;;;;;;;;;;;;;5051617;28;20010;-62
2021/09/17 09:10:51;;;;;;;;;;;;;;;;;;5051887;28;20016;-61
2021/09/17 09:13:18;;;;;;;;;;;;;;;;;;5051674;28;20010;-60
2021/09/17 09:15:45;;;;;;;;;;;;;;;;;;5051455;28;20009;-60
2021/09/17 09:18:12;;;;;;;;;;;;;;;;;;5051631;28;20433;-61
2021/09/17 09:20:39;;;;;;;;;;;;;;;;;;5052338;28;20009;-60
2021/09/17 09:23:06;;;;;;;;;;;;;;;;;;5055629;28;20481;-61
2021/09/17 09:25:33;;;;;;;;;;;;;;;;;;5055159;28;20010;-60
2021/09/17 09:28:00;;;;;;;;;;;;;;;;;;5055247;28;20014;-60
2021/09/17 09:30:27;;;;;;;;;;;;;;;;;;5055260;28;20033;-59
2021/09/17 09:32:54;;;;;;;;;;;;;;;;;;5055508;28;20009;-61
2021/09/17 09:35:21;;;;;;;;;;;;;;;;;;5054716;28;20009;-61
2021/09/17 09:37:48;;;;;;;;;;;;;;;;;;5055569;28;20048;-60
2021/09/17 09:40:17;;;;;;;;;;;;;;;;;;5055253;28;20033;-59
2021/09/17 09:42:44;;;;;;;;;;;;;;;;;;5054873;28;20056;-60
2021/09/17 09:45:11;;;;;;;;;;;;;;;;;;5054740;28;20026;-60
2021/09/17 09:47:38;;;;;;;;;;;;;;;;;;5054996;28;20532;-60
2021/09/17 09:50:05;;;;;;;;;;;;;;;;;;5054821;28;20032;-61
2021/09/17 09:52:32;;;;;;;;;;;;;;;;;;5055050;28;20016;-62
2021/09/17 09:54:59;;;;;;;;;;;;;;;;;;5054704;28;20055;-63
2021/09/17 09:57:26;;;;;;;;;;;;;;;;;;5054582;28;20010;-62
2021/09/17 09:59:52;;;;;;;;;;;;;;;;;;5054476;28;20029;-63
2021/09/17 10:02:23;;;;;;;;;;;;;;;;;;5055042;28;20009;-62
2021/09/17 10:04:50;;;;;;;;;;;;;;;;;;5054583;28;20100;-62
2021/09/17 10:07:17;;;;;;;;;;;;;;;;;;5055030;28;20017;-63
2021/09/17 10:09:44;;;;;;;;;;;;;;;;;;5054566;28;20047;-62
2021/09/17 10:12:11;;;;;;;;;;;;;;;;;;5054265;28;20024;-62
2021/09/17 10:14:37;;;;;;;;;;;;;;;;;;5054296;28;20023;-62
2021/09/17 10:17:04;;;;;;;;;;;;;;;;;;5054335;28;20009;-61
2021/09/17 10:19:31;;;;;;;;;;;;;;;;;;5054188;28;20030;-62
2021/09/17 10:21:58;;;;;;;;;;;;;;;;;;5054259;28;20018;-62
2021/09/17 10:24:25;;;;;;;;;;;;;;;;;;5053886;28;20009;-62
2021/09/17 10:26:52;;;;;;;;;;;;;;;;;;5054376;28;20017;-62
2021/09/17 10:29:19;;;;;;;;;;;;;;;;;;5054215;28;20056;-61
2021/09/17 10:31:46;;;;;;;;;;;;;;;;;;5053962;28;20010;-62
2021/09/17 10:34:13;;;;;;;;;;;;;;;;;;5053384;28;20009;-62
2021/09/17 10:36:40;;;;;;;;;;;;;;;;;;5054065;28;20010;-63
2021/09/17 10:39:07;;;;;;;;;;;;;;;;;;5053757;28;20481;-62
2021/09/17 10:41:34;;;;;;;;;;;;;;;;;;5054058;28;20016;-62
2021/09/17 10:44:00;;;;;;;;;;;;;;;;;;5053934;28;20014;-62
2021/09/17 10:46:28;;;;;;;;;;;;;;;;;;5053834;28;20009;-62
2021/09/17 10:48:57;;;;;;;;;;;;;;;;;;5053975;28;20032;-62
2021/09/17 10:51:24;;;;;;;;;;;;;;;;;;5053890;28;20480;-63
2021/09/17 10:53:52;;;;;;;;;;;;;;;;;;5054045;28;20021;-63
2021/09/17 10:56:19;;;;;;;;;;;;;;;;;;5053900;28;20016;-63
2021/09/17 10:58:45;;;;;;;;;;;;;;;;;;5053481;28;20481;-62
2021/09/17 11:01:12;;;;;;;;;;;;;;;;;;5053671;28;20016;-62
2021/09/17 11:03:39;;;;;;;;;;;;;;;;;;5053627;28;20009;-62
2021/09/17 11:06:06;;;;;;;;;;;;;;;;;;5053479;28;20048;-62
2021/09/17 11:08:33;;;;;;;;;;;;;;;;;;5053555;28;20032;-62
2021/09/17 11:11:00;;;;;;;;;;;;;;;;;;5053442;28;20014;-63
2021/09/17 11:13:27;;;;;;;;;;;;;;;;;;5053442;28;20376;-62
2021/09/17 11:15:54;;;;;;;;;;;;;;;;;;5053252;28;20020;-62
2021/09/17 11:18:21;;;;;;;;;;;;;;;;;;5053035;28;20031;-62
2021/09/17 11:20:48;;;;;;;;;;;;;;;;;;5053205;28;20010;-62
2021/09/17 11:23:15;;;;;;;;;;;;;;;;;;5053462;28;20031;-62
2021/09/17 11:25:42;;;;;;;;;;;;;;;;;;5052620;28;20018;-62
2021/09/17 11:28:09;;;;;;;;;;;;;;;;;;5053148;28;20010;-63
2021/09/17 11:30:35;;;;;;;;;;;;;;;;;;5053049;28;20009;-62
2021/09/17 11:33:02;;;;;;;;;;;;;;;;;;5053064;28;20010;-63
2021/09/17 11:35:29;;;;;;;;;;;;;;;;;;5052698;28;20017;-63
2021/09/17 11:37:56;;;;;;;;;;;;;;;;;;5052929;28;20017;-62
2021/09/17 11:40:23;;;;;;;;;;;;;;;;;;5052771;28;20530;-63
2021/09/17 11:42:50;;;;;;;;;;;;;;;;;;5052949;28;20009;-63
2021/09/17 11:45:17;;;;;;;;;;;;;;;;;;5052574;28;20016;-63
2021/09/17 11:47:44;;;;;;;;;;;;;;;;;;5052570;28;20036;-62
2021/09/17 11:50:14;;;;;;;;;;;;;;;;;;5052649;28;20393;-64
2021/09/17 11:52:41;;;;;;;;;;;;;;;;;;5052842;28;20020;-62
2021/09/17 11:55:07;;;;;;;;;;;;;;;;;;5052264;28;20491;-63
2021/09/17 11:57:35;;;;;;;;;;;;;;;;;;5052665;28;20035;-63
2021/09/17 12:00:02;;;;;;;;;;;;;;;;;;5052591;28;20130;-63
2021/09/17 12:02:29;;;;;;;;;;;;;;;;;;5052619;28;20357;-63
2021/09/17 12:04:57;;;;;;;;;;;;;;;;;;5052199;28;20005;-62
2021/09/17 12:07:24;;;;;;;;;;;;;;;;;;5052321;28;20517;-63
2021/09/17 12:09:51;;;;;;;;;;;;;;;;;;5052365;28;20029;-62
2021/09/17 12:12:18;;;;;;;;;;;;;;;;;;5052470;28;20009;-63
2021/09/17 12:14:46;;;;;;;;;;;;;;;;;;5051273;28;20513;-67
2021/09/17 12:17:13;;;;;;;;;;;;;;;;;;5052098;28;20009;-70
2021/09/17 12:19:40;;;;;;;;;;;;;;;;;;5051999;28;20511;-67
2021/09/17 12:22:07;;;;;;;;;;;;;;;;;;5052232;28;20016;-67
2021/09/17 12:24:34;;;;;;;;;;;;;;;;;;5052078;28;20009;-68
2021/09/17 12:27:01;;;;;;;;;;;;;;;;;;5052099;28;20391;-65
2021/09/17 12:29:28;;;;;;;;;;;;;;;;;;5052202;28;20025;-70
2021/09/17 12:31:55;;;;;;;;;;;;;;;;;;5051920;28;20116;-68
2021/09/17 12:34:24;;;;;;;;;;;;;;;;;;5051833;28;20461;-69
2021/09/17 12:36:51;;;;;;;;;;;;;;;;;;5052016;28;20059;-69
2021/09/17 12:39:18;;;;;;;;;;;;;;;;;;5052071;28;20032;-68
2021/09/17 12:41:45;;;;;;;;;;;;;;;;;;5052265;28;20013;-69
2021/09/17 12:44:11;;;;;;;;;;;;;;;;;;5051727;28;20021;-68
2021/09/17 12:46:38;;;;;;;;;;;;;;;;;;5051587;28;20032;-67
2021/09/17 12:49:05;;;;;;;;;;;;;;;;;;5052114;28;20032;-68
2021/09/17 12:51:32;;;;;;;;;;;;;;;;;;5051869;28;20009;-65
2021/09/17 12:54:00;;;;;;;;;;;;;;;;;;5051956;28;20009;-67
2021/09/17 12:56:27;;;;;;;;;;;;;;;;;;5053679;28;20014;-67
2021/09/17 12:58:54;;;;;;;;;;;;;;;;;;5055409;28;20036;-70
2021/09/17 13:01:21;;;;;;;;;;;;;;;;;;5056055;28;20009;-70
2021/09/17 13:03:48;;;;;;;;;;;;;;;;;;5055886;28;20010;-67
2021/09/17 13:06:15;;;;;;;;;;;;;;;;;;5055764;28;20009;-66
2021/09/17 13:08:42;;;;;;;;;;;;;;;;;;5055575;28;20070;-70
2021/09/17 13:11:09;;;;;;;;;;;;;;;;;;5055374;28;20017;-66
2021/09/17 13:13:35;;;;;;;;;;;;;;;;;;5055729;28;20009;-68
2021/09/17 13:16:02;;;;;;;;;;;;;;;;;;5055578;28;20009;-65
2021/09/17 13:18:29;;;;;;;;;;;;;;;;;;5055313;28;20037;-67
2021/09/17 13:20:56;;;;;;;;;;;;;;;;;;5055691;28;20033;-71
2021/09/17 13:23:23;;;;;;;;;;;;;;;;;;5055504;28;20016;-67
2021/09/17 13:25:50;;;;;;;;;;;;;;;;;;5054906;28;20013;-68
2021/09/17 13:28:17;;;;;;;;;;;;;;;;;;5055363;28;20113;-67
2021/09/17 13:30:44;;;;;;;;;;;;;;;;;;5055382;28;20019;-68
2021/09/17 13:33:11;;;;;;;;;;;;;;;;;;5055600;28;20010;-72
2021/09/17 13:35:38;;;;;;;;;;;;;;;;;;5054872;28;20009;-65
2021/09/17 13:38:05;;;;;;;;;;;;;;;;;;5055669;28;20009;-69
2021/09/17 13:40:32;;;;;;;;;;;;;;;;;;5055181;28;20030;-67
2021/09/17 13:42:59;;;;;;;;;;;;;;;;;;5055290;28;20056;-69
2021/09/17 13:45:26;;;;;;;;;;;;;;;;;;5054728;28;20009;-66
2021/09/17 13:47:53;;;;;;;;;;;;;;;;;;5054936;28;20481;-69
2021/09/17 13:50:19;;;;;;;;;;;;;;;;;;5055033;28;20025;-65
2021/09/17 13:52:46;;;;;;;;;;;;;;;;;;5055317;28;20009;-65
2021/09/17 13:55:13;;;;;;;;;;;;;;;;;;5054950;28;20384;-67
2021/09/17 13:57:40;;;;;;;;;;;;;;;;;;5054577;28;20016;-72
2021/09/17 14:00:08;;;;;;;;;;;;;;;;;;5054730;28;20030;-67
2021/09/17 14:02:35;;;;;;;;;;;;;;;;;;5054990;28;20021;-70
2021/09/17 14:05:03;;;;;;;;;;;;;;;;;;5054745;28;20009;-70
2021/09/17 14:07:30;;;;;;;;;;;;;;;;;;5053177;28;20012;-65
2021/09/17 14:09:57;;;;;;;;;;;;;;;;;;5054588;28;20492;-64
2021/09/17 14:12:24;;;;;;;;;;;;;;;;;;5054603;28;20009;-65
2021/09/17 14:14:51;;;;;;;;;;;;;;;;;;5054712;28;20377;-67
2021/09/17 14:17:18;;;;;;;;;;;;;;;;;;5054492;28;20009;-69
2021/09/17 14:19:45;;;;;;;;;;;;;;;;;;5054149;28;20033;-69
2021/09/17 14:22:12;;;;;;;;;;;;;;;;;;5051836;22;20032;-69
2021/09/17 14:24:39;;;;;;;;;;;;;;;;;;5026425;28;20012;-70
2021/09/17 14:27:06;;;;;;;;;;;;;;;;;;4995310;28;20007;-70
2021/09/17 14:29:33;;;;;;;;;;;;;;;;;;4995045;28;20014;-69
2021/09/17 14:32:00;;;;;;;;;;;;;;;;;;4994551;28;20414;-70
2021/09/17 14:34:27;;;;;;;;;;;;;;;;;;4995353;28;20017;-68
2021/09/17 14:36:54;;;;;;;;;;;;;;;;;;4994861;28;20010;-70
2021/09/17 14:39:21;;;;;;;;;;;;;;;;;;4994775;28;20512;-69
2021/09/17 14:41:48;;;;;;;;;;;;;;;;;;4994723;28;20034;-69
2021/09/17 14:44:15;;;;;;;;;;;;;;;;;;4994817;28;20010;-70
2021/09/17 14:46:42;;;;;;;;;;;;;;;;;;4994536;28;20466;-69
2021/09/17 14:49:09;;;;;;;;;;;;;;;;;;4994832;28;20010;-70
2021/09/17 14:51:36;;;;;;;;;;;;;;;;;;4994508;28;20033;-70
2021/09/17 14:54:02;;;;;;;;;;;;;;;;;;4994393;28;20474;-69
2021/09/17 14:56:29;;;;;;;;;;;;;;;;;;4994969;28;20010;-69
2021/09/17 14:58:56;;;;;;;;;;;;;;;;;;4994691;28;20011;-70
2021/09/17 15:01:23;;;;;;;;;;;;;;;;;;4994346;28;20026;-70
2021/09/17 15:03:50;;;;;;;;;;;;;;;;;;4994403;28;20021;-69
2021/09/17 15:06:17;;;;;;;;;;;;;;;;;;4994353;28;20010;-70
2021/09/17 15:08:44;;;;;;;;;;;;;;;;;;4994544;28;20011;-70
2021/09/17 15:11:11;;;;;;;;;;;;;;;;;;4994314;28;20027;-69
2021/09/17 15:13:38;;;;;;;;;;;;;;;;;;4994150;28;20011;-69
2021/09/17 15:16:05;;;;;;;;;;;;;;;;;;4993914;28;20010;-70
2021/09/17 15:18:32;;;;;;;;;;;;;;;;;;4993622;28;20018;-70
2021/09/17 15:20:59;;;;;;;;;;;;;;;;;;4994126;28;20030;-70
2021/09/17 15:23:25;;;;;;;;;;;;;;;;;;4994152;28;20042;-70
2021/09/17 15:25:53;;;;;;;;;;;;;;;;;;4993540;28;20011;-70
2021/09/17 15:28:20;;;;;;;;;;;;;;;;;;4993891;28;20069;-69
2021/09/17 15:30:47;;;;;;;;;;;;;;;;;;4993964;28;20033;-70
2021/09/17 15:33:15;;;;;;;;;;;;;;;;;;4994027;28;20017;-70
2021/09/17 15:35:42;;;;;;;;;;;;;;;;;;4993515;28;20446;-70
2021/09/17 15:38:09;;;;;;;;;;;;;;;;;;4993707;28;20015;-69
2021/09/17 15:40:36;;;;;;;;;;;;;;;;;;4993733;28;20022;-69
2021/09/17 15:43:03;;;;;;;;;;;;;;;;;;4993426;28;20386;-70
2021/09/17 15:45:30;;;;;;;;;;;;;;;;;;4993540;28;20021;-69
2021/09/17 15:47:56;;;;;;;;;;;;;;;;;;4993827;28;20010;-70
2021/09/17 15:50:24;;;;;;;;;;;;;;;;;;4995025;28;20362;-70
2021/09/17 15:52:51;;;;;;;;;;;;;;;;;;4993622;28;20021;-70
2021/09/17 15:55:18;;;;;;;;;;;;;;;;;;4993585;28;20011;-70
2021/09/17 15:57:45;;;;;;;;;;;;;;;;;;4993708;28;20011;-69
2021/09/17 16:00:11;;;;;;;;;;;;;;;;;;4993215;28;20405;-68
2021/09/17 16:02:38;;;;;;;;;;;;;;;;;;4993123;28;20585;-69
2021/09/17 16:05:05;;;;;;;;;;;;;;;;;;4994416;28;20011;-69
2021/09/17 16:07:32;;;;;;;;;;;;;;;;;;4993601;28;20305;-69
2021/09/17 16:09:59;;;;;;;;;;;;;;;;;;4993022;28;20470;-70
2021/09/17 16:12:26;;;;;;;;;;;;;;;;;;4993011;28;20033;-69
2021/09/17 16:14:54;;;;;;;;;;;;;;;;;;4993022;28;20065;-69
2021/09/17 16:17:21;;;;;;;;;;;;;;;;;;4993276;28;20070;-70
2021/09/17 16:19:49;;;;;;;;;;;;;;;;;;4992995;28;20022;-69
2021/09/17 16:22:16;;;;;;;;;;;;;;;;;;4992846;28;20073;-69
2021/09/17 16:24:44;;;;;;;;;;;;;;;;;;4992854;28;20492;-69
2021/09/17 16:27:11;;;;;;;;;;;;;;;;;;4992869;28;20061;-69
2021/09/17 16:29:37;;;;;;;;;;;;;;;;;;4993065;28;20018;-69
2021/09/17 16:32:04;;;;;;;;;;;;;;;;;;4992322;28;20523;-69
2021/09/17 16:34:31;;;;;;;;;;;;;;;;;;4992915;28;20014;-70
2021/09/17 16:36:58;;;;;;;;;;;;;;;;;;4992884;28;20011;-69
2021/09/17 16:39:25;;;;;;;;;;;;;;;;;;4992473;28;20495;-70
2021/09/17 16:41:52;;;;;;;;;;;;;;;;;;4993027;28;20027;-70
2021/09/17 16:44:19;;;;;;;;;;;;;;;;;;4992680;28;20010;-69